createdAt,value
2018-12-16T00:00:56.547Z,0.60
2018-12-16T00:03:24.188Z,0.60
2018-12-16T00:05:51.812Z,0.60
2018-12-16T00:08:19.491Z,0.60
2018-12-16T00:10:47.130Z,0.70
2018-12-16T00:13:14.935Z,0.60
2018-12-16T00:15:42.666Z,0.70
2018-12-16T00:18:10.352Z,0.70
2018-12-16T00:20:38.011Z,0.60
2018-12-16T00:23:05.631Z,0.60
2018-12-16T00:25:33.343Z,0.70
2018-12-16T00:28:01.095Z,0.70
2018-12-16T00:30:28.852Z,0.60
2018-12-16T00:32:56.503Z,0.70
2018-12-16T00:35:24.290Z,0.80
2018-12-16T00:37:51.952Z,0.70
2018-12-16T00:40:19.746Z,0.70
2018-12-16T00:42:47.376Z,0.80
2018-12-16T00:45:15.012Z,0.70
2018-12-16T00:47:42.635Z,0.80
2018-12-16T00:50:10.433Z,0.70
2018-12-16T00:52:38.053Z,0.80
2018-12-16T00:55:06.065Z,0.70
2018-12-16T00:57:33.951Z,0.80
2018-12-16T01:00:01.740Z,0.80
2018-12-16T01:02:35.116Z,0.70
2018-12-16T01:05:03.741Z,0.70
2018-12-16T01:07:31.400Z,0.80
2018-12-16T01:09:59.153Z,0.80
2018-12-16T01:12:26.836Z,0.90
2018-12-16T01:15:00.742Z,0.90
2018-12-16T01:17:28.490Z,0.70
2018-12-16T01:19:56.186Z,0.80
2018-12-16T01:22:23.833Z,0.90
2018-12-16T01:24:51.460Z,1.00
2018-12-16T01:27:19.076Z,0.90
2018-12-16T01:29:46.693Z,0.80
2018-12-16T01:32:14.537Z,0.90
2018-12-16T01:34:42.229Z,0.90
2018-12-16T01:37:10.149Z,0.90
2018-12-16T01:39:37.809Z,0.90
2018-12-16T01:42:05.675Z,0.80
2018-12-16T01:44:33.517Z,0.80
2018-12-16T01:47:01.360Z,0.80
2018-12-16T01:49:29.108Z,0.90
2018-12-16T01:51:57.848Z,0.80
2018-12-16T01:54:25.523Z,0.70
2018-12-16T01:56:53.202Z,0.80
2018-12-16T01:59:20.808Z,0.60
2018-12-16T02:01:54.013Z,0.50
2018-12-16T02:04:21.835Z,0.40
2018-12-16T02:06:49.648Z,0.30
2018-12-16T02:09:17.498Z,0.10
2018-12-16T02:11:45.195Z,-0.10
2018-12-16T02:14:12.856Z,-0.10
2018-12-16T02:16:40.332Z,-0.10
2018-12-16T02:19:08.018Z,-0.20
2018-12-16T02:21:35.740Z,-0.20
2018-12-16T02:24:03.474Z,-0.20
2018-12-16T02:26:31.326Z,0.00
2018-12-16T02:28:58.998Z,0.10
2018-12-16T02:31:26.960Z,-0.20
2018-12-16T02:33:54.838Z,0.00
2018-12-16T02:36:22.783Z,-0.20
2018-12-16T02:38:50.508Z,-0.20
2018-12-16T02:41:18.239Z,-0.20
2018-12-16T02:43:45.917Z,-0.20
2018-12-16T02:46:13.596Z,-0.30
2018-12-16T02:48:41.220Z,0.00
2018-12-16T02:51:09.936Z,-0.20
2018-12-16T02:53:37.787Z,-0.30
2018-12-16T02:56:05.428Z,-0.30
2018-12-16T02:58:33.728Z,-0.30
2018-12-16T03:01:01.372Z,-0.20
2018-12-16T03:03:29.115Z,-0.40
2018-12-16T03:05:56.884Z,-0.20
2018-12-16T03:08:24.687Z,-0.50
2018-12-16T03:10:52.492Z,-0.40
2018-12-16T03:13:20.589Z,-0.40
2018-12-16T03:15:48.223Z,-0.40
2018-12-16T03:18:15.867Z,-0.50
2018-12-16T03:20:43.563Z,-0.50
2018-12-16T03:23:12.470Z,-0.40
2018-12-16T03:25:40.498Z,-0.60
2018-12-16T03:28:08.184Z,-0.60
2018-12-16T03:30:35.840Z,-0.60
2018-12-16T03:33:03.622Z,-0.50
2018-12-16T03:35:31.321Z,-0.70
2018-12-16T03:37:58.997Z,-0.60
2018-12-16T03:40:26.733Z,-0.70
2018-12-16T03:42:54.378Z,-0.70
2018-12-16T03:45:22.086Z,-0.60
2018-12-16T03:47:49.760Z,-0.60
2018-12-16T03:50:17.503Z,-0.70
2018-12-16T03:52:45.285Z,-0.60
2018-12-16T03:55:12.955Z,-0.70
2018-12-16T03:57:40.695Z,-0.70
2018-12-16T04:00:08.421Z,-0.60
2018-12-16T04:02:36.136Z,-0.60
2018-12-16T04:05:04.339Z,-0.80
2018-12-16T04:07:32.070Z,-0.70
2018-12-16T04:09:59.714Z,-0.80
2018-12-16T04:12:27.642Z,-0.70
2018-12-16T04:14:55.311Z,-0.70
2018-12-16T04:17:23.146Z,-0.70
2018-12-16T04:19:50.982Z,-0.80
2018-12-16T04:22:18.847Z,-0.80
2018-12-16T04:24:46.518Z,-0.70
2018-12-16T04:27:14.435Z,-0.60
2018-12-16T04:29:42.144Z,-0.80
2018-12-16T04:32:09.928Z,-0.80
2018-12-16T04:34:37.834Z,-0.80
2018-12-16T04:37:05.480Z,-0.80
2018-12-16T04:39:33.168Z,-0.80
2018-12-16T04:42:01.081Z,-0.80
2018-12-16T04:44:28.768Z,-0.90
2018-12-16T04:46:56.629Z,-0.90
2018-12-16T04:49:24.276Z,-0.90
2018-12-16T04:51:52.000Z,-0.90
2018-12-16T04:54:19.684Z,-0.90
2018-12-16T04:56:47.340Z,-0.90
2018-12-16T04:59:15.062Z,-0.80
2018-12-16T05:01:43.431Z,-0.90
2018-12-16T05:04:11.163Z,-0.90
2018-12-16T05:06:38.924Z,-0.90
2018-12-16T05:09:07.103Z,-1.00
2018-12-16T05:11:34.799Z,-0.90
2018-12-16T05:14:02.482Z,-0.90
2018-12-16T05:16:30.176Z,-0.90
2018-12-16T05:18:57.877Z,-0.80
2018-12-16T05:21:25.691Z,-0.90
2018-12-16T05:23:53.417Z,-0.80
2018-12-16T05:26:21.201Z,-0.80
2018-12-16T05:28:48.929Z,-0.80
2018-12-16T05:31:16.681Z,-0.80
2018-12-16T05:33:44.364Z,-0.80
2018-12-16T05:36:12.668Z,-0.80
2018-12-16T05:38:40.466Z,-0.80
2018-12-16T05:41:08.259Z,-0.80
2018-12-16T05:43:35.991Z,-0.70
2018-12-16T05:46:03.829Z,-0.70
2018-12-16T05:48:31.584Z,-0.80
2018-12-16T05:50:59.396Z,-0.70
2018-12-16T05:53:27.085Z,-0.60
2018-12-16T05:55:54.709Z,-0.70
2018-12-16T05:58:22.379Z,-0.70
2018-12-16T06:00:50.124Z,-0.70
2018-12-16T06:03:17.802Z,-0.70
2018-12-16T06:05:45.582Z,-0.60
2018-12-16T06:08:13.256Z,-0.70
2018-12-16T06:10:40.970Z,-0.60
2018-12-16T06:13:08.657Z,-0.60
2018-12-16T06:15:36.333Z,-0.50
2018-12-16T06:18:04.425Z,-0.60
2018-12-16T06:20:32.309Z,-0.60
2018-12-16T06:23:00.005Z,-0.50
2018-12-16T06:25:27.776Z,-0.50
2018-12-16T06:27:55.471Z,-0.50
2018-12-16T06:30:23.845Z,-0.60
2018-12-16T06:32:52.620Z,-0.50
2018-12-16T06:35:20.356Z,-0.50
2018-12-16T06:37:48.030Z,-0.40
2018-12-16T06:40:15.863Z,-0.40
2018-12-16T06:42:43.558Z,-0.40
2018-12-16T06:45:11.385Z,-0.40
2018-12-16T06:47:39.141Z,-0.40
2018-12-16T06:50:07.168Z,-0.40
2018-12-16T06:52:35.754Z,-0.40
2018-12-16T06:55:03.596Z,-0.30
2018-12-16T06:57:31.253Z,-0.40
2018-12-16T06:59:59.059Z,-0.40
2018-12-16T07:02:26.733Z,-0.40
2018-12-16T07:04:55.419Z,-0.40
2018-12-16T07:07:23.163Z,-0.40
2018-12-16T07:09:50.930Z,-0.40
2018-12-16T07:12:18.853Z,-0.30
2018-12-16T07:14:46.761Z,-0.20
2018-12-16T07:17:14.459Z,-0.20
2018-12-16T07:19:42.372Z,-0.30
2018-12-16T07:22:10.142Z,-0.30
2018-12-16T07:24:38.235Z,-0.30
2018-12-16T07:27:06.036Z,-0.20
2018-12-16T07:29:33.902Z,-0.10
2018-12-16T07:32:01.635Z,-0.20
2018-12-16T07:34:29.483Z,-0.20
2018-12-16T07:36:57.210Z,-0.20
2018-12-16T07:39:24.929Z,-0.10
2018-12-16T07:41:52.844Z,0.00
2018-12-16T07:44:20.622Z,-0.10
2018-12-16T07:46:48.504Z,0.00
2018-12-16T07:49:16.531Z,-0.20
2018-12-16T07:51:44.245Z,0.00
2018-12-16T07:54:16.013Z,-0.10
2018-12-16T07:56:41.939Z,0.00
2018-12-16T07:59:09.719Z,0.00
2018-12-16T08:01:37.543Z,0.00
2018-12-16T08:04:05.299Z,0.00
2018-12-16T08:06:33.106Z,0.10
2018-12-16T08:09:00.830Z,0.00
2018-12-16T08:11:28.604Z,0.00
2018-12-16T08:13:56.574Z,0.10
2018-12-16T08:16:24.332Z,0.10
2018-12-16T08:21:19.062Z,0.10
2018-12-16T08:23:47.769Z,0.10
2018-12-16T08:26:15.566Z,0.00
2018-12-16T08:28:43.510Z,0.20
2018-12-16T08:31:11.281Z,0.10
2018-12-16T08:33:38.978Z,0.10
2018-12-16T08:36:06.737Z,0.00
2018-12-16T08:38:34.534Z,0.10
2018-12-16T08:41:02.303Z,0.20
2018-12-16T08:43:29.997Z,0.00
2018-12-16T08:45:57.652Z,0.10
2018-12-16T08:48:25.457Z,0.10
2018-12-16T08:50:53.106Z,0.20
2018-12-16T08:53:20.821Z,0.20
2018-12-16T08:55:48.503Z,0.10
2018-12-16T08:58:16.166Z,0.20
2018-12-16T09:00:43.856Z,0.30
2018-12-16T09:03:11.550Z,0.30
2018-12-16T09:05:39.300Z,0.20
2018-12-16T09:08:07.186Z,0.20
2018-12-16T09:10:34.927Z,0.30
2018-12-16T09:13:02.580Z,0.40
2018-12-16T09:15:30.236Z,0.30
2018-12-16T09:17:57.916Z,0.20
2018-12-16T09:20:25.764Z,0.40
2018-12-16T09:22:53.518Z,0.40
2018-12-16T09:25:21.349Z,0.40
2018-12-16T09:27:49.013Z,0.60
2018-12-16T09:30:16.824Z,0.60
2018-12-16T09:32:44.519Z,0.60
2018-12-16T09:35:12.399Z,0.70
2018-12-16T09:37:40.796Z,0.60
2018-12-16T09:40:08.421Z,0.70
2018-12-16T09:42:36.178Z,0.80
2018-12-16T09:45:05.067Z,0.60
2018-12-16T09:47:33.086Z,0.60
2018-12-16T09:50:00.797Z,0.70
2018-12-16T09:52:28.475Z,0.70
2018-12-16T09:54:56.114Z,0.60
2018-12-16T09:57:23.824Z,0.60
2018-12-16T09:59:51.555Z,0.80
2018-12-16T10:02:19.317Z,0.80
2018-12-16T10:04:47.048Z,0.70
2018-12-16T10:07:14.833Z,0.70
2018-12-16T10:09:42.542Z,0.80
2018-12-16T10:12:10.334Z,1.00
2018-12-16T10:14:37.946Z,0.80
2018-12-16T10:17:05.631Z,0.90
2018-12-16T10:19:33.525Z,0.90
2018-12-16T10:22:02.308Z,0.90
2018-12-16T10:24:29.922Z,0.90
2018-12-16T10:26:57.777Z,1.00
2018-12-16T10:29:25.761Z,0.90
2018-12-16T10:31:53.629Z,0.70
2018-12-16T10:34:21.476Z,0.90
2018-12-16T10:36:49.166Z,0.90
2018-12-16T10:39:16.899Z,0.90
2018-12-16T10:41:44.581Z,1.00
2018-12-16T10:44:12.322Z,0.90
2018-12-16T10:46:39.995Z,1.00
2018-12-16T10:49:07.617Z,0.80
2018-12-16T10:51:35.914Z,0.90
2018-12-16T10:54:03.562Z,0.90
2018-12-16T10:56:31.255Z,1.00
2018-12-16T10:58:58.933Z,1.00
2018-12-16T11:01:28.735Z,1.10
2018-12-16T11:03:56.481Z,1.10
2018-12-16T11:06:24.257Z,1.10
2018-12-16T11:08:51.988Z,1.30
2018-12-16T11:11:19.869Z,1.30
2018-12-16T11:13:47.638Z,1.10
2018-12-16T11:16:16.068Z,1.20
2018-12-16T11:18:43.928Z,1.10
2018-12-16T11:21:11.807Z,1.20
2018-12-16T11:23:39.450Z,1.10
2018-12-16T11:26:07.296Z,1.00
2018-12-16T11:28:34.979Z,1.00
2018-12-16T11:31:02.729Z,1.00
2018-12-16T11:33:30.516Z,0.90
2018-12-16T11:35:58.218Z,0.90
2018-12-16T11:38:25.982Z,1.20
2018-12-16T11:40:53.707Z,1.20
2018-12-16T11:43:21.359Z,1.20
2018-12-16T11:45:48.971Z,1.10
2018-12-16T11:48:16.892Z,1.20
2018-12-16T11:50:44.664Z,1.20
2018-12-16T11:53:12.291Z,1.20
2018-12-16T11:55:40.471Z,1.20
2018-12-16T11:58:08.373Z,1.30
2018-12-16T12:00:36.002Z,1.30
2018-12-16T12:03:04.516Z,1.40
2018-12-16T12:05:32.259Z,1.40
2018-12-16T12:08:00.213Z,1.60
2018-12-16T12:10:28.053Z,1.40
2018-12-16T12:12:55.700Z,1.40
2018-12-16T12:15:23.485Z,1.50
2018-12-16T12:17:51.170Z,1.50
2018-12-16T12:20:18.899Z,1.50
2018-12-16T12:22:46.872Z,1.60
2018-12-16T12:25:19.783Z,1.70
2018-12-16T12:27:44.394Z,1.70
2018-12-16T12:30:12.066Z,1.60
2018-12-16T12:32:39.805Z,1.70
2018-12-16T12:35:07.678Z,1.80
2018-12-16T12:37:35.456Z,1.70
2018-12-16T12:40:03.836Z,1.80
2018-12-16T12:42:31.775Z,1.70
2018-12-16T12:44:59.521Z,1.60
2018-12-16T12:47:27.355Z,1.70
2018-12-16T12:49:55.105Z,1.80
2018-12-16T12:52:22.959Z,1.80
2018-12-16T12:54:50.731Z,1.70
2018-12-16T12:57:18.625Z,1.80
2018-12-16T12:59:46.341Z,1.70
2018-12-16T13:02:14.057Z,1.90
2018-12-16T13:04:42.615Z,2.00
2018-12-16T13:09:38.193Z,1.80
2018-12-16T13:12:05.834Z,1.90
2018-12-16T13:14:33.623Z,1.90
2018-12-16T13:17:01.925Z,1.90
2018-12-16T13:19:29.765Z,1.90
2018-12-16T13:21:57.637Z,1.80
2018-12-16T13:24:25.277Z,1.80
2018-12-16T13:26:52.953Z,1.90
2018-12-16T13:29:20.667Z,1.90
2018-12-16T13:31:48.347Z,1.80
2018-12-16T13:34:15.994Z,1.70
2018-12-16T13:36:43.896Z,1.80
2018-12-16T13:39:11.520Z,1.90
2018-12-16T13:41:39.154Z,2.00
2018-12-16T13:44:06.949Z,2.00
2018-12-16T13:46:34.610Z,1.90
2018-12-16T13:49:02.283Z,2.00
2018-12-16T13:51:30.025Z,1.90
2018-12-16T13:53:57.707Z,2.00
2018-12-16T13:56:25.618Z,2.10
2018-12-16T14:01:20.057Z,2.10
2018-12-16T14:03:47.731Z,1.90
2018-12-16T14:06:15.405Z,2.10
2018-12-16T14:08:43.039Z,2.20
2018-12-16T14:11:10.822Z,2.10
2018-12-16T14:13:38.619Z,2.00
2018-12-16T14:16:06.294Z,1.90
2018-12-16T14:18:33.955Z,2.00
2018-12-16T14:21:01.672Z,2.00
2018-12-16T14:23:29.365Z,2.10
2018-12-16T14:25:57.160Z,2.10
2018-12-16T14:28:24.849Z,2.10
2018-12-16T14:30:52.551Z,2.10
2018-12-16T14:33:20.314Z,2.10
2018-12-16T14:35:48.076Z,2.10
2018-12-16T14:38:15.879Z,2.10
2018-12-16T14:40:43.577Z,2.10
2018-12-16T14:43:12.023Z,2.20
2018-12-16T14:45:39.702Z,2.30
2018-12-16T14:48:07.360Z,2.30
2018-12-16T14:50:35.105Z,2.30
2018-12-16T14:53:02.968Z,2.30
2018-12-16T14:55:30.859Z,2.30
2018-12-16T14:57:58.497Z,2.30
2018-12-16T15:00:26.257Z,2.30
2018-12-16T15:02:53.541Z,2.20
2018-12-16T15:05:21.310Z,2.30
2018-12-16T15:07:49.009Z,2.20
2018-12-16T15:10:16.813Z,2.30
2018-12-16T15:12:44.598Z,2.20
2018-12-16T15:15:12.361Z,2.20
2018-12-16T15:17:42.946Z,2.20
2018-12-16T15:20:09.869Z,2.20
2018-12-16T15:22:37.637Z,2.20
2018-12-16T15:25:05.934Z,2.20
2018-12-16T15:27:33.616Z,2.20
2018-12-16T15:30:01.368Z,2.10
2018-12-16T15:32:28.985Z,2.10
2018-12-16T15:34:56.344Z,2.10
2018-12-16T15:37:24.188Z,2.00
2018-12-16T15:39:52.003Z,2.20
2018-12-16T15:42:19.706Z,2.20
2018-12-16T15:44:47.546Z,2.10
2018-12-16T15:47:15.321Z,2.20
2018-12-16T15:49:43.215Z,2.10
2018-12-16T15:52:11.212Z,2.20
2018-12-16T15:54:39.270Z,2.20
2018-12-16T15:57:07.275Z,2.10
2018-12-16T15:59:35.177Z,2.20
2018-12-16T16:02:02.867Z,2.20
2018-12-16T16:04:30.650Z,2.10
2018-12-16T16:06:58.357Z,2.20
2018-12-16T16:09:26.148Z,2.30
2018-12-16T16:11:53.914Z,2.30
2018-12-16T16:14:21.674Z,2.30
2018-12-16T16:16:49.439Z,2.30
2018-12-16T16:19:17.240Z,2.30
2018-12-16T16:21:45.003Z,2.30
2018-12-16T16:24:12.755Z,2.40
2018-12-16T16:26:40.586Z,2.40
2018-12-16T16:29:08.330Z,2.40
2018-12-16T16:31:36.015Z,2.40
2018-12-16T16:34:03.972Z,2.40
2018-12-16T16:36:31.657Z,2.30
2018-12-16T16:38:59.482Z,2.40
2018-12-16T16:41:27.173Z,2.40
2018-12-16T16:43:55.046Z,2.40
2018-12-16T16:46:22.752Z,2.40
2018-12-16T16:48:50.428Z,2.40
2018-12-16T16:51:18.219Z,2.30
2018-12-16T16:53:46.116Z,2.40
2018-12-16T16:56:13.859Z,2.40
2018-12-16T16:58:41.805Z,2.30
2018-12-16T17:01:09.520Z,2.30
2018-12-16T17:03:37.235Z,2.40
2018-12-16T17:06:04.878Z,2.40
2018-12-16T17:08:32.678Z,2.50
2018-12-16T17:11:00.958Z,2.40
2018-12-16T17:13:28.833Z,2.50
2018-12-16T17:15:56.611Z,2.50
2018-12-16T17:18:24.482Z,2.50
2018-12-16T17:20:52.310Z,2.40
2018-12-16T17:23:20.081Z,2.50
2018-12-16T17:25:48.454Z,2.50
2018-12-16T17:28:16.493Z,2.50
2018-12-16T17:30:44.285Z,2.40
2018-12-16T17:33:12.101Z,2.50
2018-12-16T17:35:39.807Z,2.50
2018-12-16T17:38:07.504Z,2.50
2018-12-16T17:40:35.265Z,2.50
2018-12-16T17:43:03.000Z,2.60
2018-12-16T17:45:30.828Z,2.60
2018-12-16T17:47:59.353Z,2.60
2018-12-16T17:50:27.027Z,2.50
2018-12-16T17:52:54.767Z,2.60
2018-12-16T17:55:22.569Z,2.70
2018-12-16T17:57:50.214Z,2.70
2018-12-16T18:00:18.629Z,2.60
2018-12-16T18:02:46.343Z,2.60
2018-12-16T18:05:13.984Z,2.60
2018-12-16T18:07:41.689Z,2.60
2018-12-16T18:10:09.362Z,2.60
2018-12-16T18:12:37.124Z,2.70
2018-12-16T18:15:06.974Z,2.60
2018-12-16T18:17:35.035Z,2.70
2018-12-16T18:20:02.966Z,2.70
2018-12-16T18:22:30.730Z,2.60
2018-12-16T18:24:58.362Z,2.70
2018-12-16T18:27:26.042Z,2.70
2018-12-16T18:29:54.402Z,2.60
2018-12-16T18:32:22.068Z,2.70
2018-12-16T18:34:49.978Z,2.60
2018-12-16T18:37:17.318Z,2.70
2018-12-16T18:39:45.652Z,2.70
2018-12-16T18:42:13.687Z,2.70
2018-12-16T18:44:41.325Z,2.60
2018-12-16T18:47:09.058Z,2.70
2018-12-16T18:49:36.797Z,2.70
2018-12-16T18:52:04.469Z,2.60
2018-12-16T18:54:32.205Z,2.70
2018-12-16T18:57:06.952Z,2.70
2018-12-16T18:59:29.505Z,2.70
2018-12-16T19:01:57.181Z,2.70
2018-12-16T19:04:24.822Z,2.70
2018-12-16T19:06:53.033Z,2.70
2018-12-16T19:09:20.676Z,2.80
2018-12-16T19:11:48.501Z,2.90
2018-12-16T19:14:16.252Z,2.80
2018-12-16T19:16:43.996Z,2.80
2018-12-16T19:19:12.347Z,2.70
2018-12-16T19:21:40.269Z,2.80
2018-12-16T19:24:07.909Z,2.80
2018-12-16T19:26:35.540Z,2.80
2018-12-16T19:29:03.499Z,2.80
2018-12-16T19:31:31.156Z,2.80
2018-12-16T19:33:58.794Z,2.80
2018-12-16T19:36:26.562Z,2.80
2018-12-16T19:38:54.335Z,2.70
2018-12-16T19:41:22.256Z,2.80
2018-12-16T19:43:50.051Z,2.70
2018-12-16T19:46:17.930Z,2.70
2018-12-16T19:48:45.622Z,2.60
2018-12-16T19:51:13.337Z,2.50
2018-12-16T19:53:41.100Z,2.50
2018-12-16T19:56:08.880Z,2.40
2018-12-16T19:58:36.657Z,2.40
2018-12-16T20:01:04.459Z,2.30
2018-12-16T20:03:32.549Z,2.30
2018-12-16T20:06:05.937Z,2.30
2018-12-16T20:08:33.553Z,2.20
2018-12-16T20:11:01.237Z,2.10
2018-12-16T20:13:29.034Z,2.10
2018-12-16T20:16:01.478Z,2.20
2018-12-16T20:18:26.330Z,2.20
2018-12-16T20:20:54.108Z,2.20
2018-12-16T20:23:21.828Z,2.30
2018-12-16T20:25:49.551Z,2.30
2018-12-16T20:28:17.220Z,2.40
2018-12-16T20:30:44.962Z,2.30
2018-12-16T20:33:12.617Z,2.30
2018-12-16T20:35:40.384Z,2.40
2018-12-16T20:38:08.287Z,2.40
2018-12-16T20:40:35.943Z,2.30
2018-12-16T20:43:03.756Z,2.30
2018-12-16T20:45:31.535Z,2.40
2018-12-16T20:47:59.272Z,2.40
2018-12-16T20:50:26.949Z,2.40
2018-12-16T20:52:54.763Z,2.40
2018-12-16T20:55:22.491Z,2.40
2018-12-16T20:57:50.249Z,2.40
2018-12-16T21:00:17.897Z,2.50
2018-12-16T21:02:45.603Z,2.50
2018-12-16T21:05:17.688Z,2.50
2018-12-16T21:07:45.354Z,2.50
2018-12-16T21:10:13.028Z,2.50
2018-12-16T21:12:46.606Z,2.50
2018-12-16T21:15:20.196Z,2.40
2018-12-16T21:17:53.682Z,2.30
2018-12-16T21:20:21.577Z,2.20
2018-12-16T21:22:49.394Z,2.10
2018-12-16T21:25:17.225Z,2.10
2018-12-16T21:27:45.033Z,2.10
2018-12-16T21:30:12.749Z,2.00
2018-12-16T21:32:40.508Z,2.00
2018-12-16T21:35:08.343Z,1.90
2018-12-16T21:37:36.050Z,1.90
2018-12-16T21:40:05.088Z,1.90
2018-12-16T21:42:33.058Z,1.90
2018-12-16T21:45:00.891Z,1.90
2018-12-16T21:47:28.725Z,1.90
2018-12-16T21:49:56.691Z,1.90
2018-12-16T21:52:24.457Z,1.90
2018-12-16T21:54:52.242Z,1.90
2018-12-16T21:57:19.978Z,1.90
2018-12-16T21:59:47.640Z,1.90
2018-12-16T22:02:15.488Z,1.90
2018-12-16T22:04:43.168Z,1.90
2018-12-16T22:07:10.888Z,1.90
2018-12-16T22:09:38.655Z,1.90
2018-12-16T22:12:06.379Z,1.80
2018-12-16T22:14:34.069Z,1.80
2018-12-16T22:17:01.894Z,1.70
2018-12-16T22:19:29.711Z,1.70
2018-12-16T22:21:57.373Z,1.80
2018-12-16T22:24:25.086Z,1.80
2018-12-16T22:26:52.792Z,1.70
2018-12-16T22:29:20.701Z,1.70
2018-12-16T22:31:48.374Z,1.70
2018-12-16T22:34:16.068Z,1.70
2018-12-16T22:36:43.882Z,1.60
2018-12-16T22:39:11.543Z,1.60
2018-12-16T22:41:39.233Z,1.60
2018-12-16T22:44:17.147Z,1.60
2018-12-16T22:46:44.972Z,1.70
2018-12-16T22:49:12.759Z,1.70
2018-12-16T22:51:40.568Z,1.70
2018-12-16T22:54:08.270Z,1.70
2018-12-16T22:56:36.027Z,1.70
2018-12-16T22:59:03.859Z,1.90
2018-12-16T23:01:31.536Z,1.90
2018-12-16T23:03:59.231Z,2.00
2018-12-16T23:06:26.909Z,2.10
2018-12-16T23:08:54.634Z,2.10
2018-12-16T23:11:22.317Z,2.20
2018-12-16T23:13:50.113Z,2.20
2018-12-16T23:16:17.827Z,2.20
2018-12-16T23:18:45.698Z,2.20
2018-12-16T23:21:13.436Z,2.20
2018-12-16T23:23:41.074Z,2.20
2018-12-16T23:26:08.850Z,2.20
2018-12-16T23:28:36.639Z,2.20
2018-12-16T23:31:04.422Z,2.20
2018-12-16T23:33:32.776Z,2.30
2018-12-16T23:36:00.389Z,2.20
2018-12-16T23:38:28.185Z,2.30
2018-12-16T23:40:55.987Z,2.30
2018-12-16T23:43:23.685Z,2.30
2018-12-16T23:45:51.370Z,2.30
2018-12-16T23:48:19.097Z,2.30
2018-12-16T23:50:46.841Z,2.30
2018-12-16T23:53:14.639Z,2.40
2018-12-16T23:55:42.351Z,2.40
2018-12-16T23:58:10.027Z,2.40
